createdAt,value
2022-08-30T00:01:28.841Z,1.30
2022-08-30T00:06:32.038Z,1.20
2022-08-30T00:11:35.165Z,1.10
2022-08-30T00:16:38.355Z,1.10
2022-08-30T00:21:41.621Z,1.10
2022-08-30T00:26:44.902Z,1.20
2022-08-30T00:31:48.478Z,1.10
2022-08-30T00:36:51.704Z,1.30
2022-08-30T00:41:55.083Z,1.30
2022-08-30T00:46:59.007Z,1.00
2022-08-30T00:52:05.062Z,0.90
2022-08-30T00:57:11.837Z,1.00
2022-08-30T01:02:16.480Z,1.00
2022-08-30T01:07:19.779Z,1.00
2022-08-30T01:12:23.822Z,0.80
2022-08-30T01:17:27.536Z,0.80
2022-08-30T01:22:50.232Z,1.00
2022-08-30T01:28:01.946Z,1.00
2022-08-30T01:33:11.959Z,0.90
2022-08-30T01:38:17.602Z,0.90
2022-08-30T01:43:21.166Z,0.70
2022-08-30T01:48:25.715Z,0.80
2022-08-30T01:53:34.860Z,0.90
2022-08-30T01:58:39.723Z,1.00
2022-08-30T02:03:45.502Z,1.20
2022-08-30T02:08:49.456Z,0.80
2022-08-30T02:13:53.092Z,0.80
2022-08-30T02:18:57.620Z,1.40
2022-08-30T02:24:01.055Z,1.00
2022-08-30T02:29:06.173Z,0.90
2022-08-30T02:34:09.474Z,0.80
2022-08-30T02:39:14.556Z,0.70
2022-08-30T02:44:17.829Z,0.60
2022-08-30T02:49:33.313Z,0.70
2022-08-30T02:54:37.257Z,0.70
2022-08-30T02:59:44.546Z,0.80
2022-08-30T03:04:52.167Z,0.70
2022-08-30T03:09:55.369Z,0.70
2022-08-30T03:14:58.882Z,0.60
2022-08-30T03:20:02.536Z,0.70
2022-08-30T03:25:09.131Z,0.70
2022-08-30T03:30:13.375Z,0.40
2022-08-30T03:35:17.630Z,0.50
2022-08-30T03:40:23.153Z,0.50
2022-08-30T03:45:27.244Z,0.90
2022-08-30T03:50:31.304Z,0.60
2022-08-30T03:55:34.597Z,0.70
2022-08-30T04:00:38.234Z,0.60
2022-08-30T04:05:41.536Z,0.80
2022-08-30T04:10:45.099Z,0.60
2022-08-30T04:15:48.911Z,0.70
2022-08-30T04:20:54.549Z,0.80
2022-08-30T04:25:58.747Z,0.60
2022-08-30T04:31:11.752Z,0.90
2022-08-30T04:36:15.519Z,0.50
2022-08-30T04:41:21.219Z,0.90
2022-08-30T04:46:24.333Z,0.60
2022-08-30T04:51:28.749Z,0.70
2022-08-30T04:56:32.000Z,0.90
2022-08-30T05:01:44.968Z,1.10
2022-08-30T05:06:49.509Z,1.00
2022-08-30T05:11:52.821Z,0.80
2022-08-30T05:16:55.987Z,1.20
2022-08-30T05:21:59.318Z,0.60
2022-08-30T05:27:03.583Z,0.70
2022-08-30T05:32:08.611Z,0.70
2022-08-30T05:37:11.735Z,0.40
2022-08-30T05:42:16.894Z,0.60
2022-08-30T05:47:21.449Z,0.60
2022-08-30T05:52:24.835Z,0.90
2022-08-30T05:57:28.290Z,0.60
2022-08-30T06:02:31.600Z,0.50
2022-08-30T06:07:35.346Z,0.60
2022-08-30T06:12:38.567Z,1.00
2022-08-30T06:17:41.891Z,0.50
2022-08-30T06:22:45.097Z,0.60
2022-08-30T06:27:48.387Z,0.80
2022-08-30T06:32:51.576Z,0.70
2022-08-30T06:37:56.252Z,0.60
2022-08-30T06:42:59.463Z,0.70
2022-08-30T06:48:03.124Z,0.70
2022-08-30T06:53:06.396Z,0.60
2022-08-30T06:58:10.334Z,0.50
2022-08-30T07:03:13.671Z,0.40
2022-08-30T07:08:18.508Z,0.80
2022-08-30T07:13:24.395Z,0.50
2022-08-30T07:18:47.064Z,0.50
2022-08-30T07:23:53.477Z,0.50
2022-08-30T07:28:57.605Z,0.60
2022-08-30T07:34:01.045Z,0.60
2022-08-30T07:39:06.030Z,0.40
2022-08-30T07:44:09.753Z,0.50
2022-08-30T07:49:13.298Z,0.60
2022-08-30T07:54:16.715Z,0.50
2022-08-30T07:59:20.329Z,0.40
2022-08-30T08:04:24.604Z,0.50
2022-08-30T08:09:27.847Z,0.40
2022-08-30T08:14:31.462Z,0.40
2022-08-30T08:19:34.603Z,0.40
2022-08-30T08:24:38.023Z,0.40
2022-08-30T08:29:41.199Z,0.30
2022-08-30T08:34:44.621Z,0.70
2022-08-30T08:39:47.894Z,0.30
2022-08-30T08:44:55.689Z,0.50
2022-08-30T08:50:03.512Z,0.50
2022-08-30T08:55:12.887Z,0.70
2022-08-30T09:00:16.391Z,0.50
2022-08-30T09:05:26.240Z,0.50
2022-08-30T09:10:49.162Z,0.70
2022-08-30T09:15:56.187Z,0.50
2022-08-30T09:21:07.563Z,0.50
2022-08-30T09:26:10.959Z,0.60
2022-08-30T09:31:27.092Z,0.60
2022-08-30T09:36:40.154Z,0.60
2022-08-30T09:41:46.154Z,0.50
2022-08-30T09:46:57.223Z,0.70
2022-08-30T09:52:09.509Z,0.60
2022-08-30T09:57:37.398Z,0.70
2022-08-30T10:03:05.070Z,0.60
2022-08-30T10:08:39.464Z,0.60
2022-08-30T10:14:13.349Z,0.60
2022-08-30T10:19:46.077Z,0.60
2022-08-30T10:24:57.301Z,0.70
2022-08-30T10:30:12.320Z,0.70
2022-08-30T10:35:29.076Z,0.50
2022-08-30T10:40:57.559Z,0.50
2022-08-30T10:46:06.085Z,0.70
2022-08-30T10:51:15.823Z,0.60
2022-08-30T10:56:25.791Z,0.60
2022-08-30T11:01:57.982Z,0.70
2022-08-30T11:07:29.212Z,0.60
2022-08-30T11:12:50.130Z,0.80
2022-08-30T11:17:59.522Z,0.60
2022-08-30T11:23:32.994Z,0.80
2022-08-30T11:28:36.407Z,0.50
2022-08-30T11:33:52.500Z,0.60
2022-08-30T11:38:55.702Z,0.60
2022-08-30T11:44:28.948Z,0.60
2022-08-30T11:49:58.007Z,0.40
2022-08-30T11:55:25.780Z,0.50
2022-08-30T12:00:51.504Z,0.50
2022-08-30T12:05:58.909Z,0.50
2022-08-30T12:11:26.192Z,0.60
2022-08-30T12:17:02.300Z,0.50
2022-08-30T12:22:07.621Z,0.60
2022-08-30T12:27:27.697Z,0.60
2022-08-30T12:32:44.727Z,0.60
2022-08-30T12:38:00.167Z,0.60
2022-08-30T12:43:07.877Z,0.70
2022-08-30T12:48:15.520Z,0.70
2022-08-30T12:53:46.592Z,0.80
2022-08-30T12:58:53.915Z,1.50
2022-08-30T13:04:03.013Z,1.00
2022-08-30T13:09:06.362Z,0.60
2022-08-30T13:14:30.644Z,0.80
2022-08-30T13:19:39.113Z,0.60
2022-08-30T13:24:43.823Z,1.00
2022-08-30T13:29:47.296Z,1.00
2022-08-30T13:34:50.984Z,1.20
2022-08-30T13:39:54.152Z,0.90
2022-08-30T13:44:58.344Z,0.70
2022-08-30T13:50:01.606Z,0.80
2022-08-30T13:55:05.460Z,1.00
2022-08-30T14:00:14.844Z,1.10
2022-08-30T14:05:47.205Z,1.00
2022-08-30T14:10:47.360Z,1.00
2022-08-30T14:16:26.482Z,1.20
2022-08-30T14:21:15.358Z,1.30
2022-08-30T14:26:22.232Z,1.00
2022-08-30T14:31:25.530Z,1.60
2022-08-30T14:36:29.252Z,1.30
2022-08-30T14:41:33.046Z,1.40
2022-08-30T14:46:36.630Z,1.30
2022-08-30T14:51:41.081Z,1.50
2022-08-30T14:56:45.119Z,1.00
2022-08-30T15:01:48.444Z,1.10
2022-08-30T15:06:51.981Z,1.30
2022-08-30T15:11:58.825Z,1.00
2022-08-30T15:17:05.530Z,1.20
2022-08-30T15:22:09.446Z,1.20
2022-08-30T15:27:12.753Z,1.00
2022-08-30T15:32:15.964Z,0.90
2022-08-30T15:37:23.637Z,1.00
2022-08-30T15:42:28.032Z,0.90
2022-08-30T15:47:32.460Z,1.10
2022-08-30T15:52:35.760Z,1.20
2022-08-30T15:57:39.512Z,1.10
2022-08-30T16:02:44.270Z,1.10
2022-08-30T16:07:47.471Z,1.20
2022-08-30T16:12:52.106Z,1.20
2022-08-30T16:17:55.964Z,1.30
2022-08-30T16:22:59.136Z,1.10
2022-08-30T16:28:02.636Z,1.10
2022-08-30T16:33:06.065Z,1.40
2022-08-30T16:38:10.885Z,1.10
2022-08-30T16:43:15.799Z,1.70
2022-08-30T16:48:19.488Z,2.20
2022-08-30T16:53:24.319Z,1.60
2022-08-30T16:58:28.420Z,1.10
2022-08-30T17:03:31.899Z,1.50
2022-08-30T17:08:35.277Z,1.40
2022-08-30T17:13:38.665Z,1.50
2022-08-30T17:18:42.580Z,1.40
2022-08-30T17:23:46.701Z,1.50
2022-08-30T17:28:53.352Z,1.30
2022-08-30T17:34:02.999Z,1.20
2022-08-30T17:39:11.015Z,1.10
2022-08-30T17:44:14.950Z,1.00
2022-08-30T17:49:18.225Z,1.10
2022-08-30T17:54:21.501Z,1.30
2022-08-30T17:59:31.710Z,1.40
2022-08-30T18:04:36.531Z,1.00
2022-08-30T18:09:41.313Z,1.10
2022-08-30T18:14:44.629Z,0.90
2022-08-30T18:19:48.672Z,1.10
2022-08-30T18:24:52.035Z,1.20
2022-08-30T18:29:55.258Z,1.20
2022-08-30T18:34:58.496Z,1.00
2022-08-30T18:40:02.549Z,1.30
2022-08-30T18:45:11.513Z,1.00
2022-08-30T18:50:18.828Z,1.40
2022-08-30T18:55:23.449Z,1.10
2022-08-30T19:00:26.746Z,1.10
2022-08-30T19:05:30.412Z,1.80
2022-08-30T19:10:35.413Z,1.20
2022-08-30T19:15:39.047Z,1.20
2022-08-30T19:20:44.390Z,1.20
2022-08-30T19:25:47.612Z,1.70
2022-08-30T19:30:56.649Z,1.30
2022-08-30T19:35:59.978Z,1.80
2022-08-30T19:41:04.029Z,1.70
2022-08-30T19:46:08.357Z,1.60
2022-08-30T19:51:13.717Z,1.30
2022-08-30T19:56:17.128Z,1.50
2022-08-30T20:01:33.165Z,1.50
2022-08-30T20:06:38.053Z,1.10
2022-08-30T20:11:45.224Z,1.10
2022-08-30T20:16:53.662Z,1.30
2022-08-30T20:22:05.580Z,1.20
2022-08-30T20:27:12.075Z,1.10
2022-08-30T20:32:15.289Z,1.40
2022-08-30T20:37:23.279Z,1.10
2022-08-30T20:42:27.376Z,1.20
2022-08-30T20:47:30.650Z,1.20
2022-08-30T20:52:34.025Z,1.30
2022-08-30T20:57:41.941Z,1.70
2022-08-30T21:02:47.023Z,1.70
2022-08-30T21:07:52.091Z,1.40
2022-08-30T21:12:55.329Z,1.30
2022-08-30T21:18:00.729Z,1.20
2022-08-30T21:23:04.098Z,1.90
2022-08-30T21:28:08.602Z,1.10
2022-08-30T21:33:11.861Z,1.30
2022-08-30T21:38:16.341Z,1.60
2022-08-30T21:43:19.693Z,1.80
2022-08-30T21:48:22.926Z,2.40
2022-08-30T21:53:26.258Z,2.20
2022-08-30T21:58:29.419Z,1.50
2022-08-30T22:03:32.804Z,2.40
2022-08-30T22:08:36.018Z,1.70
2022-08-30T22:13:43.045Z,1.60
2022-08-30T22:18:49.744Z,1.80
2022-08-30T22:23:53.183Z,1.60
2022-08-30T22:28:56.491Z,1.90
2022-08-30T22:34:00.127Z,2.20
2022-08-30T22:39:06.279Z,1.60
2022-08-30T22:44:09.532Z,2.40
2022-08-30T22:49:13.245Z,2.00
2022-08-30T22:54:16.447Z,2.30
2022-08-30T22:59:19.656Z,2.00
2022-08-30T23:04:22.867Z,2.60
2022-08-30T23:09:29.450Z,2.30
2022-08-30T23:14:32.741Z,2.20
2022-08-30T23:19:36.016Z,1.80
2022-08-30T23:24:57.798Z,2.00
2022-08-30T23:30:20.035Z,1.90
2022-08-30T23:35:41.816Z,1.80
2022-08-30T23:41:03.709Z,1.80
2022-08-30T23:46:25.487Z,1.60
2022-08-30T23:51:47.272Z,1.60
2022-08-30T23:57:10.079Z,2.00
